sensor_id;sensor_type;location;lat;lon;timestamp;P1;durP1;ratioP1;P2;durP2;ratioP2
76136;SDS011;68622;53.128;17.966;2023-10-19T00:01:14;105.70;;;47.20;;
76136;SDS011;68622;53.128;17.966;2023-10-19T00:03:42;113.50;;;47.30;;
76136;SDS011;68622;53.128;17.966;2023-10-19T00:06:10;115.70;;;47.20;;
76136;SDS011;68622;53.128;17.966;2023-10-19T00:08:38;107.20;;;44.40;;
76136;SDS011;68622;53.128;17.966;2023-10-19T00:11:07;108.60;;;45.70;;
76136;SDS011;68622;53.128;17.966;2023-10-19T00:13:36;110.50;;;45.80;;
76136;SDS011;68622;53.128;17.966;2023-10-19T00:16:07;102.20;;;46.00;;
76136;SDS011;68622;53.128;17.966;2023-10-19T00:18:48;101.30;;;43.70;;
76136;SDS011;68622;53.128;17.966;2023-10-19T00:21:16;104.60;;;44.30;;
76136;SDS011;68622;53.128;17.966;2023-10-19T00:23:54;102.00;;;44.50;;
76136;SDS011;68622;53.128;17.966;2023-10-19T00:26:31;105.50;;;44.80;;
76136;SDS011;68622;53.128;17.966;2023-10-19T00:28:59;104.70;;;44.00;;
76136;SDS011;68622;53.128;17.966;2023-10-19T00:31:31;104.50;;;43.70;;
76136;SDS011;68622;53.128;17.966;2023-10-19T00:34:03;112.80;;;47.60;;
76136;SDS011;68622;53.128;17.966;2023-10-19T00:36:30;115.40;;;47.30;;
76136;SDS011;68622;53.128;17.966;2023-10-19T00:38:58;111.40;;;49.20;;
76136;SDS011;68622;53.128;17.966;2023-10-19T00:41:27;117.60;;;50.50;;
76136;SDS011;68622;53.128;17.966;2023-10-19T00:43:57;117.40;;;51.40;;
76136;SDS011;68622;53.128;17.966;2023-10-19T00:49:46;99.10;;;41.90;;
76136;SDS011;68622;53.128;17.966;2023-10-19T00:52:13;102.80;;;44.30;;
76136;SDS011;68622;53.128;17.966;2023-10-19T00:54:46;109.40;;;45.70;;
76136;SDS011;68622;53.128;17.966;2023-10-19T00:57:18;100.70;;;43.10;;
76136;SDS011;68622;53.128;17.966;2023-10-19T01:00:02;107.90;;;42.10;;
76136;SDS011;68622;53.128;17.966;2023-10-19T01:02:38;108.60;;;45.50;;
76136;SDS011;68622;53.128;17.966;2023-10-19T01:05:12;103.60;;;43.80;;
76136;SDS011;68622;53.128;17.966;2023-10-19T01:07:41;106.70;;;44.40;;
76136;SDS011;68622;53.128;17.966;2023-10-19T01:10:08;111.40;;;43.60;;
76136;SDS011;68622;53.128;17.966;2023-10-19T01:12:38;109.10;;;44.60;;
76136;SDS011;68622;53.128;17.966;2023-10-19T01:15:13;98.60;;;44.40;;
76136;SDS011;68622;53.128;17.966;2023-10-19T01:17:54;102.10;;;42.00;;
76136;SDS011;68622;53.128;17.966;2023-10-19T01:20:26;102.60;;;40.90;;
76136;SDS011;68622;53.128;17.966;2023-10-19T01:22:58;91.50;;;35.60;;
76136;SDS011;68622;53.128;17.966;2023-10-19T01:28:25;83.10;;;32.80;;
76136;SDS011;68622;53.128;17.966;2023-10-19T01:31:09;78.30;;;31.60;;
76136;SDS011;68622;53.128;17.966;2023-10-19T01:33:55;79.20;;;33.20;;
76136;SDS011;68622;53.128;17.966;2023-10-19T01:36:32;78.50;;;30.50;;
76136;SDS011;68622;53.128;17.966;2023-10-19T01:39:08;81.10;;;31.50;;
76136;SDS011;68622;53.128;17.966;2023-10-19T01:41:38;76.90;;;31.30;;
76136;SDS011;68622;53.128;17.966;2023-10-19T01:44:07;80.30;;;32.40;;
76136;SDS011;68622;53.128;17.966;2023-10-19T01:46:34;68.40;;;28.50;;
76136;SDS011;68622;53.128;17.966;2023-10-19T01:49:02;72.10;;;28.70;;
76136;SDS011;68622;53.128;17.966;2023-10-19T01:51:31;72.20;;;28.80;;
76136;SDS011;68622;53.128;17.966;2023-10-19T01:53:59;67.80;;;28.80;;
76136;SDS011;68622;53.128;17.966;2023-10-19T01:56:27;66.90;;;26.80;;
76136;SDS011;68622;53.128;17.966;2023-10-19T01:58:54;64.20;;;25.90;;
76136;SDS011;68622;53.128;17.966;2023-10-19T02:01:21;63.50;;;26.20;;
76136;SDS011;68622;53.128;17.966;2023-10-19T02:04:03;69.50;;;24.80;;
76136;SDS011;68622;53.128;17.966;2023-10-19T02:06:33;63.30;;;23.30;;
76136;SDS011;68622;53.128;17.966;2023-10-19T02:09:02;62.00;;;23.40;;
76136;SDS011;68622;53.128;17.966;2023-10-19T02:11:44;58.30;;;22.50;;
76136;SDS011;68622;53.128;17.966;2023-10-19T02:14:13;51.40;;;20.60;;
76136;SDS011;68622;53.128;17.966;2023-10-19T02:16:42;48.60;;;20.30;;
76136;SDS011;68622;53.128;17.966;2023-10-19T02:19:10;55.90;;;22.20;;
76136;SDS011;68622;53.128;17.966;2023-10-19T02:21:37;50.50;;;19.60;;
76136;SDS011;68622;53.128;17.966;2023-10-19T02:24:10;43.10;;;19.00;;
76136;SDS011;68622;53.128;17.966;2023-10-19T02:26:57;44.10;;;19.60;;
76136;SDS011;68622;53.128;17.966;2023-10-19T02:29:24;46.40;;;18.60;;
76136;SDS011;68622;53.128;17.966;2023-10-19T02:31:52;41.40;;;18.80;;
76136;SDS011;68622;53.128;17.966;2023-10-19T02:34:22;46.40;;;17.80;;
76136;SDS011;68622;53.128;17.966;2023-10-19T02:36:49;40.40;;;17.90;;
76136;SDS011;68622;53.128;17.966;2023-10-19T02:39:16;40.80;;;18.10;;
76136;SDS011;68622;53.128;17.966;2023-10-19T02:41:46;43.10;;;18.50;;
76136;SDS011;68622;53.128;17.966;2023-10-19T02:44:18;46.30;;;18.60;;
76136;SDS011;68622;53.128;17.966;2023-10-19T02:46:50;40.50;;;16.60;;
76136;SDS011;68622;53.128;17.966;2023-10-19T02:49:19;43.10;;;18.00;;
76136;SDS011;68622;53.128;17.966;2023-10-19T02:51:48;34.40;;;16.00;;
76136;SDS011;68622;53.128;17.966;2023-10-19T02:54:16;40.20;;;18.20;;
76136;SDS011;68622;53.128;17.966;2023-10-19T02:56:52;38.20;;;17.20;;
76136;SDS011;68622;53.128;17.966;2023-10-19T02:59:21;41.20;;;18.00;;
76136;SDS011;68622;53.128;17.966;2023-10-19T03:01:51;41.60;;;18.40;;
76136;SDS011;68622;53.128;17.966;2023-10-19T03:04:19;39.00;;;16.70;;
76136;SDS011;68622;53.128;17.966;2023-10-19T03:06:47;41.00;;;16.40;;
76136;SDS011;68622;53.128;17.966;2023-10-19T03:09:14;38.10;;;16.50;;
76136;SDS011;68622;53.128;17.966;2023-10-19T03:12:02;33.50;;;16.30;;
76136;SDS011;68622;53.128;17.966;2023-10-19T03:14:40;35.50;;;15.70;;
76136;SDS011;68622;53.128;17.966;2023-10-19T03:17:12;36.70;;;15.50;;
76136;SDS011;68622;53.128;17.966;2023-10-19T03:19:39;36.60;;;15.90;;
76136;SDS011;68622;53.128;17.966;2023-10-19T03:22:06;32.90;;;16.20;;
76136;SDS011;68622;53.128;17.966;2023-10-19T03:24:36;35.10;;;16.80;;
76136;SDS011;68622;53.128;17.966;2023-10-19T03:27:02;39.70;;;17.10;;
76136;SDS011;68622;53.128;17.966;2023-10-19T03:29:44;34.70;;;16.60;;
76136;SDS011;68622;53.128;17.966;2023-10-19T03:32:13;30.80;;;15.70;;
76136;SDS011;68622;53.128;17.966;2023-10-19T03:34:42;29.50;;;15.20;;
76136;SDS011;68622;53.128;17.966;2023-10-19T03:37:13;33.50;;;15.60;;
76136;SDS011;68622;53.128;17.966;2023-10-19T03:39:41;31.70;;;16.00;;
76136;SDS011;68622;53.128;17.966;2023-10-19T03:42:12;34.50;;;16.00;;
76136;SDS011;68622;53.128;17.966;2023-10-19T03:44:40;31.30;;;16.30;;
76136;SDS011;68622;53.128;17.966;2023-10-19T03:47:17;36.10;;;17.10;;
76136;SDS011;68622;53.128;17.966;2023-10-19T03:49:47;43.40;;;19.00;;
76136;SDS011;68622;53.128;17.966;2023-10-19T03:52:15;35.50;;;17.00;;
76136;SDS011;68622;53.128;17.966;2023-10-19T03:54:41;36.20;;;18.90;;
76136;SDS011;68622;53.128;17.966;2023-10-19T03:57:11;41.50;;;19.40;;
76136;SDS011;68622;53.128;17.966;2023-10-19T03:59:39;35.90;;;18.70;;
76136;SDS011;68622;53.128;17.966;2023-10-19T04:02:10;39.50;;;19.30;;
76136;SDS011;68622;53.128;17.966;2023-10-19T04:04:40;37.10;;;19.10;;
76136;SDS011;68622;53.128;17.966;2023-10-19T04:07:10;40.60;;;18.80;;
76136;SDS011;68622;53.128;17.966;2023-10-19T04:09:42;37.90;;;16.90;;
76136;SDS011;68622;53.128;17.966;2023-10-19T04:12:27;36.20;;;18.00;;
76136;SDS011;68622;53.128;17.966;2023-10-19T04:14:55;38.60;;;19.50;;
76136;SDS011;68622;53.128;17.966;2023-10-19T04:17:41;41.00;;;19.00;;
76136;SDS011;68622;53.128;17.966;2023-10-19T04:20:17;45.80;;;19.10;;
76136;SDS011;68622;53.128;17.966;2023-10-19T04:22:45;39.40;;;20.60;;
76136;SDS011;68622;53.128;17.966;2023-10-19T04:25:13;40.40;;;19.20;;
76136;SDS011;68622;53.128;17.966;2023-10-19T04:27:42;40.40;;;19.70;;
76136;SDS011;68622;53.128;17.966;2023-10-19T04:30:09;39.30;;;19.40;;
76136;SDS011;68622;53.128;17.966;2023-10-19T04:32:53;43.10;;;19.20;;
76136;SDS011;68622;53.128;17.966;2023-10-19T04:35:22;41.20;;;19.90;;
76136;SDS011;68622;53.128;17.966;2023-10-19T04:37:52;36.90;;;18.80;;
76136;SDS011;68622;53.128;17.966;2023-10-19T04:40:20;45.90;;;21.20;;
76136;SDS011;68622;53.128;17.966;2023-10-19T04:42:47;43.00;;;21.70;;
76136;SDS011;68622;53.128;17.966;2023-10-19T04:45:15;43.30;;;20.20;;
76136;SDS011;68622;53.128;17.966;2023-10-19T04:47:42;40.60;;;19.00;;
76136;SDS011;68622;53.128;17.966;2023-10-19T04:50:09;40.70;;;20.70;;
76136;SDS011;68622;53.128;17.966;2023-10-19T04:52:38;43.20;;;20.80;;
76136;SDS011;68622;53.128;17.966;2023-10-19T04:55:09;35.60;;;18.30;;
76136;SDS011;68622;53.128;17.966;2023-10-19T04:57:35;38.80;;;19.40;;
76136;SDS011;68622;53.128;17.966;2023-10-19T05:00:02;43.10;;;20.30;;
76136;SDS011;68622;53.128;17.966;2023-10-19T05:02:30;40.50;;;19.50;;
76136;SDS011;68622;53.128;17.966;2023-10-19T05:04:56;36.60;;;20.10;;
76136;SDS011;68622;53.128;17.966;2023-10-19T05:07:23;47.80;;;20.60;;
76136;SDS011;68622;53.128;17.966;2023-10-19T05:09:49;48.10;;;21.70;;
76136;SDS011;68622;53.128;17.966;2023-10-19T05:12:16;38.80;;;20.60;;
76136;SDS011;68622;53.128;17.966;2023-10-19T05:14:43;47.50;;;20.70;;
76136;SDS011;68622;53.128;17.966;2023-10-19T05:17:09;38.20;;;19.40;;
76136;SDS011;68622;53.128;17.966;2023-10-19T05:19:36;40.90;;;19.70;;
76136;SDS011;68622;53.128;17.966;2023-10-19T05:22:05;39.20;;;19.20;;
76136;SDS011;68622;53.128;17.966;2023-10-19T05:24:33;41.00;;;19.10;;
76136;SDS011;68622;53.128;17.966;2023-10-19T05:27:01;45.00;;;20.10;;
76136;SDS011;68622;53.128;17.966;2023-10-19T05:29:28;43.20;;;20.40;;
76136;SDS011;68622;53.128;17.966;2023-10-19T05:31:54;40.40;;;20.20;;
76136;SDS011;68622;53.128;17.966;2023-10-19T05:34:24;42.00;;;21.00;;
76136;SDS011;68622;53.128;17.966;2023-10-19T05:36:53;39.20;;;19.30;;
76136;SDS011;68622;53.128;17.966;2023-10-19T05:39:20;45.30;;;22.20;;
76136;SDS011;68622;53.128;17.966;2023-10-19T05:41:47;46.40;;;20.80;;
76136;SDS011;68622;53.128;17.966;2023-10-19T05:44:13;43.30;;;20.50;;
76136;SDS011;68622;53.128;17.966;2023-10-19T05:46:40;48.00;;;22.90;;
76136;SDS011;68622;53.128;17.966;2023-10-19T05:49:07;46.10;;;22.80;;
76136;SDS011;68622;53.128;17.966;2023-10-19T05:51:34;49.40;;;22.40;;
76136;SDS011;68622;53.128;17.966;2023-10-19T05:54:00;39.80;;;22.30;;
76136;SDS011;68622;53.128;17.966;2023-10-19T05:56:31;43.40;;;20.90;;
76136;SDS011;68622;53.128;17.966;2023-10-19T05:58:58;39.40;;;20.50;;
76136;SDS011;68622;53.128;17.966;2023-10-19T06:01:24;46.40;;;21.60;;
76136;SDS011;68622;53.128;17.966;2023-10-19T06:03:51;39.40;;;20.80;;
76136;SDS011;68622;53.128;17.966;2023-10-19T06:06:19;42.90;;;20.70;;
76136;SDS011;68622;53.128;17.966;2023-10-19T06:08:46;45.30;;;19.60;;
76136;SDS011;68622;53.128;17.966;2023-10-19T06:11:13;43.10;;;20.30;;
76136;SDS011;68622;53.128;17.966;2023-10-19T06:13:39;41.40;;;19.10;;
76136;SDS011;68622;53.128;17.966;2023-10-19T06:16:06;38.00;;;19.20;;
76136;SDS011;68622;53.128;17.966;2023-10-19T06:18:33;44.20;;;20.40;;
76136;SDS011;68622;53.128;17.966;2023-10-19T06:20:59;39.00;;;18.80;;
76136;SDS011;68622;53.128;17.966;2023-10-19T06:23:26;39.40;;;19.00;;
76136;SDS011;68622;53.128;17.966;2023-10-19T06:25:52;43.80;;;19.80;;
76136;SDS011;68622;53.128;17.966;2023-10-19T06:28:19;43.70;;;24.90;;
76136;SDS011;68622;53.128;17.966;2023-10-19T06:30:46;40.40;;;19.90;;
76136;SDS011;68622;53.128;17.966;2023-10-19T06:33:14;46.80;;;19.20;;
76136;SDS011;68622;53.128;17.966;2023-10-19T06:35:41;37.30;;;19.10;;
76136;SDS011;68622;53.128;17.966;2023-10-19T06:38:08;42.60;;;18.70;;
76136;SDS011;68622;53.128;17.966;2023-10-19T06:40:35;37.90;;;18.80;;
76136;SDS011;68622;53.128;17.966;2023-10-19T06:43:03;41.20;;;20.80;;
76136;SDS011;68622;53.128;17.966;2023-10-19T06:45:31;39.30;;;19.80;;
76136;SDS011;68622;53.128;17.966;2023-10-19T06:48:00;38.90;;;18.60;;
76136;SDS011;68622;53.128;17.966;2023-10-19T06:50:27;36.30;;;18.10;;
76136;SDS011;68622;53.128;17.966;2023-10-19T06:52:54;30.90;;;16.50;;
76136;SDS011;68622;53.128;17.966;2023-10-19T06:55:21;36.90;;;16.80;;
76136;SDS011;68622;53.128;17.966;2023-10-19T06:57:49;31.10;;;15.80;;
76136;SDS011;68622;53.128;17.966;2023-10-19T07:00:24;42.20;;;17.40;;
76136;SDS011;68622;53.128;17.966;2023-10-19T07:02:55;37.60;;;16.00;;
76136;SDS011;68622;53.128;17.966;2023-10-19T07:05:23;36.80;;;17.00;;
76136;SDS011;68622;53.128;17.966;2023-10-19T07:07:56;31.60;;;16.10;;
76136;SDS011;68622;53.128;17.966;2023-10-19T07:10:25;31.40;;;16.00;;
76136;SDS011;68622;53.128;17.966;2023-10-19T07:12:54;37.30;;;17.30;;
76136;SDS011;68622;53.128;17.966;2023-10-19T07:15:22;35.50;;;15.30;;
76136;SDS011;68622;53.128;17.966;2023-10-19T07:17:51;31.30;;;15.30;;
76136;SDS011;68622;53.128;17.966;2023-10-19T07:20:20;31.60;;;16.20;;
76136;SDS011;68622;53.128;17.966;2023-10-19T07:22:55;32.90;;;14.80;;
76136;SDS011;68622;53.128;17.966;2023-10-19T07:25:23;35.10;;;15.60;;
76136;SDS011;68622;53.128;17.966;2023-10-19T07:27:52;28.80;;;14.50;;
76136;SDS011;68622;53.128;17.966;2023-10-19T07:30:19;30.40;;;14.90;;
76136;SDS011;68622;53.128;17.966;2023-10-19T07:32:50;30.30;;;14.60;;
76136;SDS011;68622;53.128;17.966;2023-10-19T07:35:22;30.40;;;16.70;;
76136;SDS011;68622;53.128;17.966;2023-10-19T07:37:52;26.20;;;14.70;;
76136;SDS011;68622;53.128;17.966;2023-10-19T07:40:19;32.60;;;16.60;;
76136;SDS011;68622;53.128;17.966;2023-10-19T07:42:46;29.70;;;15.00;;
76136;SDS011;68622;53.128;17.966;2023-10-19T07:45:15;27.40;;;13.30;;
76136;SDS011;68622;53.128;17.966;2023-10-19T07:47:42;30.40;;;16.70;;
76136;SDS011;68622;53.128;17.966;2023-10-19T07:50:11;89.00;;;56.40;;
76136;SDS011;68622;53.128;17.966;2023-10-19T07:52:49;52.50;;;30.30;;
76136;SDS011;68622;53.128;17.966;2023-10-19T07:55:17;37.00;;;19.70;;
76136;SDS011;68622;53.128;17.966;2023-10-19T07:57:45;32.50;;;17.80;;
76136;SDS011;68622;53.128;17.966;2023-10-19T08:00:17;27.90;;;15.00;;
76136;SDS011;68622;53.128;17.966;2023-10-19T08:02:45;29.50;;;14.90;;
76136;SDS011;68622;53.128;17.966;2023-10-19T08:05:13;27.70;;;16.60;;
76136;SDS011;68622;53.128;17.966;2023-10-19T08:07:41;31.90;;;14.00;;
76136;SDS011;68622;53.128;17.966;2023-10-19T08:10:10;25.30;;;12.60;;
76136;SDS011;68622;53.128;17.966;2023-10-19T08:12:38;33.80;;;14.70;;
76136;SDS011;68622;53.128;17.966;2023-10-19T08:15:09;27.20;;;15.90;;
76136;SDS011;68622;53.128;17.966;2023-10-19T08:17:42;27.40;;;13.40;;
76136;SDS011;68622;53.128;17.966;2023-10-19T08:20:11;32.90;;;16.00;;
76136;SDS011;68622;53.128;17.966;2023-10-19T08:22:57;29.70;;;15.40;;
76136;SDS011;68622;53.128;17.966;2023-10-19T08:25:25;33.00;;;15.00;;
76136;SDS011;68622;53.128;17.966;2023-10-19T08:27:55;26.50;;;13.90;;
76136;SDS011;68622;53.128;17.966;2023-10-19T08:30:25;27.10;;;13.20;;
76136;SDS011;68622;53.128;17.966;2023-10-19T08:32:51;28.40;;;14.10;;
76136;SDS011;68622;53.128;17.966;2023-10-19T08:35:19;25.30;;;13.20;;
76136;SDS011;68622;53.128;17.966;2023-10-19T08:37:54;32.50;;;13.80;;
76136;SDS011;68622;53.128;17.966;2023-10-19T08:40:24;31.60;;;18.00;;
76136;SDS011;68622;53.128;17.966;2023-10-19T08:42:53;27.30;;;14.20;;
76136;SDS011;68622;53.128;17.966;2023-10-19T08:45:20;29.10;;;15.60;;
76136;SDS011;68622;53.128;17.966;2023-10-19T08:50:25;26.30;;;13.90;;
76136;SDS011;68622;53.128;17.966;2023-10-19T08:52:55;31.50;;;17.90;;
76136;SDS011;68622;53.128;17.966;2023-10-19T08:55:23;31.90;;;16.90;;
76136;SDS011;68622;53.128;17.966;2023-10-19T08:57:51;29.40;;;15.40;;
76136;SDS011;68622;53.128;17.966;2023-10-19T09:00:19;26.30;;;14.10;;
76136;SDS011;68622;53.128;17.966;2023-10-19T09:02:46;31.80;;;16.60;;
76136;SDS011;68622;53.128;17.966;2023-10-19T09:05:13;23.40;;;13.50;;
76136;SDS011;68622;53.128;17.966;2023-10-19T09:07:46;24.60;;;13.10;;
76136;SDS011;68622;53.128;17.966;2023-10-19T09:10:16;29.40;;;14.50;;
76136;SDS011;68622;53.128;17.966;2023-10-19T09:12:43;25.40;;;13.70;;
76136;SDS011;68622;53.128;17.966;2023-10-19T09:15:22;38.40;;;24.90;;
76136;SDS011;68622;53.128;17.966;2023-10-19T09:17:52;22.30;;;12.90;;
76136;SDS011;68622;53.128;17.966;2023-10-19T09:20:21;26.20;;;14.30;;
76136;SDS011;68622;53.128;17.966;2023-10-19T09:22:54;21.60;;;11.50;;
76136;SDS011;68622;53.128;17.966;2023-10-19T09:25:21;22.60;;;11.70;;
76136;SDS011;68622;53.128;17.966;2023-10-19T09:27:49;20.70;;;12.00;;
76136;SDS011;68622;53.128;17.966;2023-10-19T09:30:15;23.80;;;11.90;;
76136;SDS011;68622;53.128;17.966;2023-10-19T09:32:46;25.70;;;11.60;;
76136;SDS011;68622;53.128;17.966;2023-10-19T09:35:14;22.50;;;11.00;;
76136;SDS011;68622;53.128;17.966;2023-10-19T09:37:42;38.70;;;25.30;;
76136;SDS011;68622;53.128;17.966;2023-10-19T09:40:09;23.20;;;12.20;;
76136;SDS011;68622;53.128;17.966;2023-10-19T09:42:43;23.50;;;14.20;;
76136;SDS011;68622;53.128;17.966;2023-10-19T09:45:15;23.20;;;12.60;;
76136;SDS011;68622;53.128;17.966;2023-10-19T09:47:49;24.00;;;12.30;;
76136;SDS011;68622;53.128;17.966;2023-10-19T09:50:17;22.50;;;11.60;;
76136;SDS011;68622;53.128;17.966;2023-10-19T09:52:44;23.20;;;11.80;;
76136;SDS011;68622;53.128;17.966;2023-10-19T09:55:19;26.40;;;12.70;;
76136;SDS011;68622;53.128;17.966;2023-10-19T09:57:53;26.20;;;13.10;;
76136;SDS011;68622;53.128;17.966;2023-10-19T10:00:25;25.80;;;13.90;;
76136;SDS011;68622;53.128;17.966;2023-10-19T10:02:51;27.10;;;13.80;;
76136;SDS011;68622;53.128;17.966;2023-10-19T10:10:50;22.80;;;13.90;;
76136;SDS011;68622;53.128;17.966;2023-10-19T10:15:54;24.00;;;12.80;;
76136;SDS011;68622;53.128;17.966;2023-10-19T10:18:24;26.30;;;13.10;;
76136;SDS011;68622;53.128;17.966;2023-10-19T10:21:07;27.20;;;13.80;;
76136;SDS011;68622;53.128;17.966;2023-10-19T10:23:46;23.70;;;13.90;;
76136;SDS011;68622;53.128;17.966;2023-10-19T10:26:15;23.20;;;12.10;;
76136;SDS011;68622;53.128;17.966;2023-10-19T10:28:50;26.60;;;13.70;;
76136;SDS011;68622;53.128;17.966;2023-10-19T10:31:40;30.20;;;15.60;;
76136;SDS011;68622;53.128;17.966;2023-10-19T10:34:08;52.40;;;20.50;;
76136;SDS011;68622;53.128;17.966;2023-10-19T10:39:29;25.70;;;12.80;;
76136;SDS011;68622;53.128;17.966;2023-10-19T10:42:01;25.50;;;12.00;;
76136;SDS011;68622;53.128;17.966;2023-10-19T10:44:43;21.10;;;11.50;;
76136;SDS011;68622;53.128;17.966;2023-10-19T10:47:11;25.50;;;13.40;;
76136;SDS011;68622;53.128;17.966;2023-10-19T10:49:52;25.70;;;12.60;;
76136;SDS011;68622;53.128;17.966;2023-10-19T10:52:26;21.70;;;11.40;;
76136;SDS011;68622;53.128;17.966;2023-10-19T10:54:58;21.70;;;12.20;;
76136;SDS011;68622;53.128;17.966;2023-10-19T10:57:33;24.80;;;12.00;;
76136;SDS011;68622;53.128;17.966;2023-10-19T11:00:04;24.80;;;11.40;;
76136;SDS011;68622;53.128;17.966;2023-10-19T11:02:42;22.70;;;12.10;;
76136;SDS011;68622;53.128;17.966;2023-10-19T11:05:10;22.40;;;11.50;;
76136;SDS011;68622;53.128;17.966;2023-10-19T11:07:40;22.70;;;12.20;;
76136;SDS011;68622;53.128;17.966;2023-10-19T11:10:30;18.80;;;11.10;;
76136;SDS011;68622;53.128;17.966;2023-10-19T11:13:01;20.30;;;11.70;;
76136;SDS011;68622;53.128;17.966;2023-10-19T11:15:28;23.00;;;11.40;;
76136;SDS011;68622;53.128;17.966;2023-10-19T11:17:54;23.40;;;12.20;;
76136;SDS011;68622;53.128;17.966;2023-10-19T11:20:21;21.40;;;11.50;;
76136;SDS011;68622;53.128;17.966;2023-10-19T11:22:53;28.90;;;12.60;;
76136;SDS011;68622;53.128;17.966;2023-10-19T11:25:25;21.00;;;10.60;;
76136;SDS011;68622;53.128;17.966;2023-10-19T11:27:57;20.60;;;11.70;;
76136;SDS011;68622;53.128;17.966;2023-10-19T11:30:25;20.10;;;11.30;;
76136;SDS011;68622;53.128;17.966;2023-10-19T11:32:57;20.80;;;11.00;;
76136;SDS011;68622;53.128;17.966;2023-10-19T11:35:26;20.20;;;12.20;;
76136;SDS011;68622;53.128;17.966;2023-10-19T11:37:54;26.20;;;12.00;;
76136;SDS011;68622;53.128;17.966;2023-10-19T11:40:23;20.60;;;10.80;;
76136;SDS011;68622;53.128;17.966;2023-10-19T11:42:52;20.80;;;11.40;;
76136;SDS011;68622;53.128;17.966;2023-10-19T11:45:22;20.30;;;10.60;;
76136;SDS011;68622;53.128;17.966;2023-10-19T11:47:52;18.60;;;10.40;;
76136;SDS011;68622;53.128;17.966;2023-10-19T11:50:20;20.00;;;10.10;;
76136;SDS011;68622;53.128;17.966;2023-10-19T11:52:47;21.00;;;10.90;;
76136;SDS011;68622;53.128;17.966;2023-10-19T11:55:14;29.10;;;10.00;;
76136;SDS011;68622;53.128;17.966;2023-10-19T11:57:42;22.80;;;11.50;;
76136;SDS011;68622;53.128;17.966;2023-10-19T12:00:10;21.80;;;9.20;;
76136;SDS011;68622;53.128;17.966;2023-10-19T12:03:01;19.30;;;10.20;;
76136;SDS011;68622;53.128;17.966;2023-10-19T12:05:28;20.30;;;9.90;;
76136;SDS011;68622;53.128;17.966;2023-10-19T12:07:55;19.60;;;9.80;;
76136;SDS011;68622;53.128;17.966;2023-10-19T12:10:22;20.50;;;10.60;;
76136;SDS011;68622;53.128;17.966;2023-10-19T12:12:59;23.10;;;10.30;;
76136;SDS011;68622;53.128;17.966;2023-10-19T12:15:25;21.50;;;10.10;;
76136;SDS011;68622;53.128;17.966;2023-10-19T12:17:52;21.20;;;10.60;;
76136;SDS011;68622;53.128;17.966;2023-10-19T12:20:20;21.70;;;10.60;;
76136;SDS011;68622;53.128;17.966;2023-10-19T12:22:48;30.50;;;25.80;;
76136;SDS011;68622;53.128;17.966;2023-10-19T12:25:18;29.10;;;16.70;;
76136;SDS011;68622;53.128;17.966;2023-10-19T12:27:45;24.70;;;12.70;;
76136;SDS011;68622;53.128;17.966;2023-10-19T12:30:11;21.50;;;11.00;;
76136;SDS011;68622;53.128;17.966;2023-10-19T12:33:06;21.70;;;11.40;;
76136;SDS011;68622;53.128;17.966;2023-10-19T12:35:38;26.50;;;11.60;;
76136;SDS011;68622;53.128;17.966;2023-10-19T12:38:26;22.40;;;11.20;;
76136;SDS011;68622;53.128;17.966;2023-10-19T12:40:53;24.50;;;11.20;;
76136;SDS011;68622;53.128;17.966;2023-10-19T12:43:20;23.00;;;12.30;;
76136;SDS011;68622;53.128;17.966;2023-10-19T12:45:49;21.90;;;10.20;;
76136;SDS011;68622;53.128;17.966;2023-10-19T12:48:24;20.70;;;10.70;;
76136;SDS011;68622;53.128;17.966;2023-10-19T12:50:59;19.90;;;10.40;;
76136;SDS011;68622;53.128;17.966;2023-10-19T12:53:28;20.90;;;10.60;;
76136;SDS011;68622;53.128;17.966;2023-10-19T12:55:54;20.10;;;11.00;;
76136;SDS011;68622;53.128;17.966;2023-10-19T12:58:21;19.20;;;9.60;;
76136;SDS011;68622;53.128;17.966;2023-10-19T13:00:48;16.60;;;8.70;;
76136;SDS011;68622;53.128;17.966;2023-10-19T13:03:18;14.80;;;8.40;;
76136;SDS011;68622;53.128;17.966;2023-10-19T13:05:45;17.70;;;9.30;;
76136;SDS011;68622;53.128;17.966;2023-10-19T13:08:12;18.80;;;9.60;;
76136;SDS011;68622;53.128;17.966;2023-10-19T13:10:40;18.50;;;9.60;;
76136;SDS011;68622;53.128;17.966;2023-10-19T13:13:10;22.00;;;11.30;;
76136;SDS011;68622;53.128;17.966;2023-10-19T13:15:39;20.60;;;10.00;;
76136;SDS011;68622;53.128;17.966;2023-10-19T13:18:09;18.40;;;9.70;;
76136;SDS011;68622;53.128;17.966;2023-10-19T13:20:37;19.50;;;10.40;;
76136;SDS011;68622;53.128;17.966;2023-10-19T13:23:08;16.10;;;9.30;;
76136;SDS011;68622;53.128;17.966;2023-10-19T13:25:38;16.30;;;9.00;;
76136;SDS011;68622;53.128;17.966;2023-10-19T13:28:06;19.90;;;9.60;;
76136;SDS011;68622;53.128;17.966;2023-10-19T13:30:35;19.10;;;8.90;;
76136;SDS011;68622;53.128;17.966;2023-10-19T13:33:06;17.10;;;8.70;;
76136;SDS011;68622;53.128;17.966;2023-10-19T13:35:36;16.70;;;8.40;;
76136;SDS011;68622;53.128;17.966;2023-10-19T13:38:05;17.90;;;8.90;;
76136;SDS011;68622;53.128;17.966;2023-10-19T13:40:32;19.40;;;8.40;;
76136;SDS011;68622;53.128;17.966;2023-10-19T13:42:59;15.50;;;8.80;;
76136;SDS011;68622;53.128;17.966;2023-10-19T13:45:26;17.30;;;8.60;;
76136;SDS011;68622;53.128;17.966;2023-10-19T13:47:53;15.90;;;8.80;;
76136;SDS011;68622;53.128;17.966;2023-10-19T13:50:24;18.50;;;10.60;;
76136;SDS011;68622;53.128;17.966;2023-10-19T13:52:53;15.00;;;8.40;;
76136;SDS011;68622;53.128;17.966;2023-10-19T13:55:20;14.70;;;8.50;;
76136;SDS011;68622;53.128;17.966;2023-10-19T13:57:47;14.70;;;8.00;;
76136;SDS011;68622;53.128;17.966;2023-10-19T14:00:14;14.60;;;8.10;;
76136;SDS011;68622;53.128;17.966;2023-10-19T14:02:57;15.30;;;8.20;;
76136;SDS011;68622;53.128;17.966;2023-10-19T14:05:25;15.70;;;7.80;;
76136;SDS011;68622;53.128;17.966;2023-10-19T14:07:52;16.80;;;8.80;;
76136;SDS011;68622;53.128;17.966;2023-10-19T14:10:19;17.60;;;7.50;;
76136;SDS011;68622;53.128;17.966;2023-10-19T14:12:48;14.70;;;7.70;;
76136;SDS011;68622;53.128;17.966;2023-10-19T14:15:19;14.30;;;8.10;;
76136;SDS011;68622;53.128;17.966;2023-10-19T14:17:46;14.90;;;8.40;;
76136;SDS011;68622;53.128;17.966;2023-10-19T14:20:14;14.50;;;8.00;;
76136;SDS011;68622;53.128;17.966;2023-10-19T14:22:43;16.20;;;7.90;;
76136;SDS011;68622;53.128;17.966;2023-10-19T14:25:11;15.60;;;7.70;;
76136;SDS011;68622;53.128;17.966;2023-10-19T14:27:39;14.90;;;7.00;;
76136;SDS011;68622;53.128;17.966;2023-10-19T14:30:17;13.70;;;7.80;;
76136;SDS011;68622;53.128;17.966;2023-10-19T14:32:48;13.40;;;6.60;;
76136;SDS011;68622;53.128;17.966;2023-10-19T14:35:18;14.90;;;7.00;;
76136;SDS011;68622;53.128;17.966;2023-10-19T14:37:47;14.00;;;7.50;;
76136;SDS011;68622;53.128;17.966;2023-10-19T14:40:19;14.20;;;8.10;;
76136;SDS011;68622;53.128;17.966;2023-10-19T14:42:50;19.70;;;8.70;;
76136;SDS011;68622;53.128;17.966;2023-10-19T14:45:21;15.90;;;9.00;;